Inicio METAR Ruta Wind Satelite

Informe Meteorológico

Fecha: 2021/09/21 15:54:35 Local
2021.09.21 20:54 UTC


Operación:
SKMZ 212000Z 28005KT 9000 SCT007 BKN030 21/12 Q1024 RMK A3024 =